sensor_id;sensor_type;location;lat;lon;timestamp;P1;durP1;ratioP1;P2;durP2;ratioP2
18893;SDS011;9579;49.488;8.226;2022-10-26T05:08:15;4.97;;;3.08;;
18893;SDS011;9579;49.488;8.226;2022-10-26T05:11:02;4.50;;;3.53;;
18893;SDS011;9579;49.488;8.226;2022-10-26T05:13:57;5.53;;;3.00;;
18893;SDS011;9579;49.488;8.226;2022-10-26T05:16:46;4.63;;;3.38;;
18893;SDS011;9579;49.488;8.226;2022-10-26T05:19:37;4.82;;;3.00;;
18893;SDS011;9579;49.488;8.226;2022-10-26T05:22:26;3.78;;;3.03;;
18893;SDS011;9579;49.488;8.226;2022-10-26T05:25:16;3.45;;;2.97;;
18893;SDS011;9579;49.488;8.226;2022-10-26T05:28:07;6.93;;;3.35;;
18893;SDS011;9579;49.488;8.226;2022-10-26T05:30:57;3.58;;;3.28;;
18893;SDS011;9579;49.488;8.226;2022-10-26T05:33:47;3.72;;;3.03;;
18893;SDS011;9579;49.488;8.226;2022-10-26T05:36:36;4.72;;;3.05;;
18893;SDS011;9579;49.488;8.226;2022-10-26T05:39:28;3.97;;;3.20;;
18893;SDS011;9579;49.488;8.226;2022-10-26T05:42:20;6.40;;;3.43;;
18893;SDS011;9579;49.488;8.226;2022-10-26T05:45:11;3.78;;;3.20;;
18893;SDS011;9579;49.488;8.226;2022-10-26T05:47:59;4.53;;;3.65;;
18893;SDS011;9579;49.488;8.226;2022-10-26T05:50:47;4.60;;;3.28;;
18893;SDS011;9579;49.488;8.226;2022-10-26T05:53:35;4.37;;;3.50;;
18893;SDS011;9579;49.488;8.226;2022-10-26T05:56:29;4.80;;;3.70;;
18893;SDS011;9579;49.488;8.226;2022-10-26T05:59:22;5.30;;;3.80;;
18893;SDS011;9579;49.488;8.226;2022-10-26T06:02:11;3.67;;;3.37;;
18893;SDS011;9579;49.488;8.226;2022-10-26T06:05:09;3.73;;;3.00;;
18893;SDS011;9579;49.488;8.226;2022-10-26T06:08:07;4.57;;;3.90;;
18893;SDS011;9579;49.488;8.226;2022-10-26T06:11:03;6.73;;;4.07;;
18893;SDS011;9579;49.488;8.226;2022-10-26T06:28:57;5.77;;;4.20;;
18893;SDS011;9579;49.488;8.226;2022-10-26T06:32:06;6.07;;;4.23;;
18893;SDS011;9579;49.488;8.226;2022-10-26T06:35:19;4.50;;;3.83;;
18893;SDS011;9579;49.488;8.226;2022-10-26T06:38:18;5.67;;;4.00;;
18893;SDS011;9579;49.488;8.226;2022-10-26T06:41:15;4.63;;;3.70;;
18893;SDS011;9579;49.488;8.226;2022-10-26T06:44:18;6.53;;;4.00;;
18893;SDS011;9579;49.488;8.226;2022-10-26T06:47:09;7.50;;;3.90;;
18893;SDS011;9579;49.488;8.226;2022-10-26T06:50:06;6.17;;;4.27;;
18893;SDS011;9579;49.488;8.226;2022-10-26T06:53:05;6.23;;;4.10;;
18893;SDS011;9579;49.488;8.226;2022-10-26T06:56:05;4.87;;;3.80;;
18893;SDS011;9579;49.488;8.226;2022-10-26T06:58:57;5.93;;;4.40;;
18893;SDS011;9579;49.488;8.226;2022-10-26T07:01:51;5.03;;;3.90;;
18893;SDS011;9579;49.488;8.226;2022-10-26T07:04:39;5.40;;;3.80;;
18893;SDS011;9579;49.488;8.226;2022-10-26T07:07:28;4.78;;;4.15;;
18893;SDS011;9579;49.488;8.226;2022-10-26T07:10:16;5.17;;;3.90;;
18893;SDS011;9579;49.488;8.226;2022-10-26T07:13:03;5.00;;;4.00;;
18893;SDS011;9579;49.488;8.226;2022-10-26T07:15:52;4.57;;;4.00;;
18893;SDS011;9579;49.488;8.226;2022-10-26T07:18:40;4.60;;;4.03;;
18893;SDS011;9579;49.488;8.226;2022-10-26T07:21:31;8.17;;;4.67;;
18893;SDS011;9579;49.488;8.226;2022-10-26T07:24:18;5.67;;;4.10;;
18893;SDS011;9579;49.488;8.226;2022-10-26T07:27:06;5.97;;;4.20;;
18893;SDS011;9579;49.488;8.226;2022-10-26T07:29:54;5.97;;;4.00;;
18893;SDS011;9579;49.488;8.226;2022-10-26T07:32:41;5.93;;;3.90;;
18893;SDS011;9579;49.488;8.226;2022-10-26T07:35:31;6.47;;;4.40;;
18893;SDS011;9579;49.488;8.226;2022-10-26T07:38:19;5.33;;;4.30;;
18893;SDS011;9579;49.488;8.226;2022-10-26T07:41:12;6.63;;;4.65;;
18893;SDS011;9579;49.488;8.226;2022-10-26T07:44:00;7.18;;;4.80;;
18893;SDS011;9579;49.488;8.226;2022-10-26T07:46:50;7.22;;;4.80;;
18893;SDS011;9579;49.488;8.226;2022-10-26T07:49:40;5.55;;;3.97;;
18893;SDS011;9579;49.488;8.226;2022-10-26T07:52:29;8.00;;;4.40;;
18893;SDS011;9579;49.488;8.226;2022-10-26T07:55:17;4.03;;;3.55;;
18893;SDS011;9579;49.488;8.226;2022-10-26T07:58:08;5.18;;;3.97;;
18893;SDS011;9579;49.488;8.226;2022-10-26T08:00:55;6.07;;;4.38;;
18893;SDS011;9579;49.488;8.226;2022-10-26T08:03:46;5.30;;;4.10;;
18893;SDS011;9579;49.488;8.226;2022-10-26T08:06:52;5.25;;;3.60;;
18893;SDS011;9579;49.488;8.226;2022-10-26T08:10:00;4.47;;;3.70;;
18893;SDS011;9579;49.488;8.226;2022-10-26T08:12:52;5.55;;;3.50;;
18893;SDS011;9579;49.488;8.226;2022-10-26T08:15:40;3.90;;;3.55;;
18893;SDS011;9579;49.488;8.226;2022-10-26T08:18:33;5.70;;;3.65;;
18893;SDS011;9579;49.488;8.226;2022-10-26T08:21:32;3.90;;;3.20;;
18893;SDS011;9579;49.488;8.226;2022-10-26T08:24:26;4.28;;;3.40;;
18893;SDS011;9579;49.488;8.226;2022-10-26T08:27:15;3.97;;;3.53;;
18893;SDS011;9579;49.488;8.226;2022-10-26T08:30:13;6.18;;;3.30;;
18893;SDS011;9579;49.488;8.226;2022-10-26T08:33:32;3.55;;;3.00;;
18893;SDS011;9579;49.488;8.226;2022-10-26T09:13:39;4.20;;;3.15;;
18893;SDS011;9579;49.488;8.226;2022-10-26T09:16:39;3.53;;;2.70;;
18893;SDS011;9579;49.488;8.226;2022-10-26T09:19:38;5.63;;;4.72;;
18893;SDS011;9579;49.488;8.226;2022-10-26T09:22:41;5.10;;;3.35;;
18893;SDS011;9579;49.488;8.226;2022-10-26T09:25:37;4.07;;;3.20;;
18893;SDS011;9579;49.488;8.226;2022-10-26T09:28:26;5.57;;;4.15;;
18893;SDS011;9579;49.488;8.226;2022-10-26T09:31:18;4.53;;;3.75;;
18893;SDS011;9579;49.488;8.226;2022-10-26T09:34:06;3.72;;;3.40;;
18893;SDS011;9579;49.488;8.226;2022-10-26T09:37:10;8.48;;;4.00;;
18893;SDS011;9579;49.488;8.226;2022-10-26T09:40:04;4.75;;;3.55;;
18893;SDS011;9579;49.488;8.226;2022-10-26T09:42:57;5.65;;;3.70;;
18893;SDS011;9579;49.488;8.226;2022-10-26T09:45:48;5.75;;;4.03;;
18893;SDS011;9579;49.488;8.226;2022-10-26T09:48:39;4.03;;;3.58;;
18893;SDS011;9579;49.488;8.226;2022-10-26T09:51:31;7.10;;;3.95;;
18893;SDS011;9579;49.488;8.226;2022-10-26T09:54:20;4.68;;;3.53;;
18893;SDS011;9579;49.488;8.226;2022-10-26T09:57:07;6.18;;;3.53;;
18893;SDS011;9579;49.488;8.226;2022-10-26T09:59:58;5.57;;;3.40;;
18893;SDS011;9579;49.488;8.226;2022-10-26T10:02:47;6.18;;;3.45;;
18893;SDS011;9579;49.488;8.226;2022-10-26T10:05:37;4.70;;;2.83;;
18893;SDS011;9579;49.488;8.226;2022-10-26T10:08:25;5.75;;;3.03;;
18893;SDS011;9579;49.488;8.226;2022-10-26T10:11:13;3.45;;;2.88;;
18893;SDS011;9579;49.488;8.226;2022-10-26T10:14:03;6.95;;;3.00;;
18893;SDS011;9579;49.488;8.226;2022-10-26T10:16:53;4.32;;;3.22;;
18893;SDS011;9579;49.488;8.226;2022-10-26T10:19:42;4.60;;;2.90;;
18893;SDS011;9579;49.488;8.226;2022-10-26T10:22:30;4.75;;;2.67;;
18893;SDS011;9579;49.488;8.226;2022-10-26T10:25:21;6.20;;;2.72;;
18893;SDS011;9579;49.488;8.226;2022-10-26T10:28:19;3.97;;;2.42;;
18893;SDS011;9579;49.488;8.226;2022-10-26T10:31:17;4.38;;;2.50;;
18893;SDS011;9579;49.488;8.226;2022-10-26T10:34:14;3.95;;;2.58;;
18893;SDS011;9579;49.488;8.226;2022-10-26T10:37:01;4.47;;;2.50;;
18893;SDS011;9579;49.488;8.226;2022-10-26T10:39:54;4.85;;;2.47;;
18893;SDS011;9579;49.488;8.226;2022-10-26T10:42:43;5.05;;;2.50;;
18893;SDS011;9579;49.488;8.226;2022-10-26T10:45:31;3.20;;;2.40;;
18893;SDS011;9579;49.488;8.226;2022-10-26T10:48:20;5.50;;;2.80;;
18893;SDS011;9579;49.488;8.226;2022-10-26T10:51:10;5.05;;;2.45;;
18893;SDS011;9579;49.488;8.226;2022-10-26T10:53:57;5.13;;;2.35;;
18893;SDS011;9579;49.488;8.226;2022-10-26T10:56:46;4.05;;;2.28;;
18893;SDS011;9579;49.488;8.226;2022-10-26T10:59:48;4.32;;;2.50;;
18893;SDS011;9579;49.488;8.226;2022-10-26T11:02:49;3.42;;;2.33;;
18893;SDS011;9579;49.488;8.226;2022-10-26T11:05:47;3.90;;;2.60;;
18893;SDS011;9579;49.488;8.226;2022-10-26T11:08:46;4.45;;;2.25;;
18893;SDS011;9579;49.488;8.226;2022-10-26T11:11:38;5.88;;;2.35;;
18893;SDS011;9579;49.488;8.226;2022-10-26T11:14:31;5.78;;;2.50;;
18893;SDS011;9579;49.488;8.226;2022-10-26T11:17:23;4.18;;;2.22;;
18893;SDS011;9579;49.488;8.226;2022-10-26T11:20:14;4.03;;;2.25;;
18893;SDS011;9579;49.488;8.226;2022-10-26T11:23:07;2.75;;;2.10;;
18893;SDS011;9579;49.488;8.226;2022-10-26T11:25:59;4.03;;;1.90;;
18893;SDS011;9579;49.488;8.226;2022-10-26T11:28:53;5.05;;;2.67;;
18893;SDS011;9579;49.488;8.226;2022-10-26T11:31:46;4.82;;;2.33;;
18893;SDS011;9579;49.488;8.226;2022-10-26T11:34:39;3.20;;;2.03;;
18893;SDS011;9579;49.488;8.226;2022-10-26T11:37:33;4.70;;;2.20;;
18893;SDS011;9579;49.488;8.226;2022-10-26T11:40:27;5.55;;;2.20;;
18893;SDS011;9579;49.488;8.226;2022-10-26T11:43:20;4.75;;;2.20;;
18893;SDS011;9579;49.488;8.226;2022-10-26T11:46:12;3.80;;;2.08;;
18893;SDS011;9579;49.488;8.226;2022-10-26T11:49:05;4.28;;;2.10;;
18893;SDS011;9579;49.488;8.226;2022-10-26T11:51:58;2.88;;;1.92;;
18893;SDS011;9579;49.488;8.226;2022-10-26T11:54:52;2.80;;;2.17;;
18893;SDS011;9579;49.488;8.226;2022-10-26T11:57:40;3.35;;;2.08;;
18893;SDS011;9579;49.488;8.226;2022-10-26T12:00:30;3.00;;;2.00;;
18893;SDS011;9579;49.488;8.226;2022-10-26T12:03:22;5.80;;;2.75;;
18893;SDS011;9579;49.488;8.226;2022-10-26T12:06:13;3.58;;;2.33;;
18893;SDS011;9579;49.488;8.226;2022-10-26T12:09:06;5.50;;;2.13;;
18893;SDS011;9579;49.488;8.226;2022-10-26T12:12:00;5.13;;;2.30;;
18893;SDS011;9579;49.488;8.226;2022-10-26T12:14:55;3.10;;;2.38;;
18893;SDS011;9579;49.488;8.226;2022-10-26T12:17:50;2.67;;;1.98;;
18893;SDS011;9579;49.488;8.226;2022-10-26T12:20:52;5.38;;;2.20;;
18893;SDS011;9579;49.488;8.226;2022-10-26T12:23:54;2.67;;;1.70;;
18893;SDS011;9579;49.488;8.226;2022-10-26T12:26:49;4.63;;;2.10;;
18893;SDS011;9579;49.488;8.226;2022-10-26T12:29:39;4.38;;;2.22;;
18893;SDS011;9579;49.488;8.226;2022-10-26T12:35:38;5.05;;;2.08;;
18893;SDS011;9579;49.488;8.226;2022-10-26T12:41:53;4.70;;;2.13;;
18893;SDS011;9579;49.488;8.226;2022-10-26T12:47:59;4.03;;;2.10;;
18893;SDS011;9579;49.488;8.226;2022-10-26T12:50:47;4.30;;;2.22;;
18893;SDS011;9579;49.488;8.226;2022-10-26T12:53:35;3.88;;;2.03;;
18893;SDS011;9579;49.488;8.226;2022-10-26T12:56:23;4.25;;;2.35;;
18893;SDS011;9579;49.488;8.226;2022-10-26T12:59:20;5.85;;;2.30;;
18893;SDS011;9579;49.488;8.226;2022-10-26T13:02:26;4.00;;;2.00;;
18893;SDS011;9579;49.488;8.226;2022-10-26T13:05:27;5.60;;;2.00;;
18893;SDS011;9579;49.488;8.226;2022-10-26T13:08:26;2.22;;;1.92;;
18893;SDS011;9579;49.488;8.226;2022-10-26T13:11:24;3.20;;;2.00;;
18893;SDS011;9579;49.488;8.226;2022-10-26T13:14:17;2.90;;;2.00;;
18893;SDS011;9579;49.488;8.226;2022-10-26T13:17:18;3.17;;;1.52;;
18893;SDS011;9579;49.488;8.226;2022-10-26T13:20:13;3.22;;;1.65;;
18893;SDS011;9579;49.488;8.226;2022-10-26T13:23:12;2.35;;;2.00;;
18893;SDS011;9579;49.488;8.226;2022-10-26T13:26:03;4.18;;;2.15;;
18893;SDS011;9579;49.488;8.226;2022-10-26T13:28:53;3.72;;;1.83;;
18893;SDS011;9579;49.488;8.226;2022-10-26T13:31:55;2.83;;;1.80;;
18893;SDS011;9579;49.488;8.226;2022-10-26T13:34:46;3.15;;;1.73;;
18893;SDS011;9579;49.488;8.226;2022-10-26T13:37:34;3.22;;;1.80;;
18893;SDS011;9579;49.488;8.226;2022-10-26T13:40:23;3.80;;;1.60;;
18893;SDS011;9579;49.488;8.226;2022-10-26T13:43:18;2.58;;;1.73;;
18893;SDS011;9579;49.488;8.226;2022-10-26T13:46:12;2.45;;;1.60;;
18893;SDS011;9579;49.488;8.226;2022-10-26T13:49:17;2.22;;;1.60;;
18893;SDS011;9579;49.488;8.226;2022-10-26T13:52:12;3.00;;;1.55;;
18893;SDS011;9579;49.488;8.226;2022-10-26T13:55:06;2.22;;;1.48;;
18893;SDS011;9579;49.488;8.226;2022-10-26T13:58:02;2.33;;;1.50;;
18893;SDS011;9579;49.488;8.226;2022-10-26T14:01:10;3.75;;;1.50;;
18893;SDS011;9579;49.488;8.226;2022-10-26T14:04:13;3.35;;;1.60;;
18893;SDS011;9579;49.488;8.226;2022-10-26T14:07:05;2.30;;;1.60;;
18893;SDS011;9579;49.488;8.226;2022-10-26T14:10:00;3.35;;;2.00;;
18893;SDS011;9579;49.488;8.226;2022-10-26T14:12:48;3.42;;;2.45;;
18893;SDS011;9579;49.488;8.226;2022-10-26T14:15:40;2.63;;;2.17;;
18893;SDS011;9579;49.488;8.226;2022-10-26T14:18:30;2.80;;;1.70;;
18893;SDS011;9579;49.488;8.226;2022-10-26T14:21:19;3.95;;;2.25;;
18893;SDS011;9579;49.488;8.226;2022-10-26T14:24:18;3.05;;;1.60;;
18893;SDS011;9579;49.488;8.226;2022-10-26T14:27:13;3.50;;;1.63;;
18893;SDS011;9579;49.488;8.226;2022-10-26T14:30:01;2.80;;;1.80;;
18893;SDS011;9579;49.488;8.226;2022-10-26T14:33:15;4.28;;;1.60;;
18893;SDS011;9579;49.488;8.226;2022-10-26T14:36:04;4.53;;;3.00;;
18893;SDS011;9579;49.488;8.226;2022-10-26T14:38:54;4.72;;;2.35;;
18893;SDS011;9579;49.488;8.226;2022-10-26T14:41:46;2.78;;;1.77;;
18893;SDS011;9579;49.488;8.226;2022-10-26T14:44:35;3.40;;;1.67;;
18893;SDS011;9579;49.488;8.226;2022-10-26T14:47:23;4.93;;;1.80;;
18893;SDS011;9579;49.488;8.226;2022-10-26T14:50:16;2.33;;;1.65;;
18893;SDS011;9579;49.488;8.226;2022-10-26T14:53:10;3.25;;;2.10;;
18893;SDS011;9579;49.488;8.226;2022-10-26T14:56:02;3.25;;;1.90;;
18893;SDS011;9579;49.488;8.226;2022-10-26T14:58:53;3.72;;;1.70;;
18893;SDS011;9579;49.488;8.226;2022-10-26T15:01:46;2.50;;;1.88;;
18893;SDS011;9579;49.488;8.226;2022-10-26T15:04:35;3.55;;;1.70;;
18893;SDS011;9579;49.488;8.226;2022-10-26T15:07:32;2.95;;;2.05;;
18893;SDS011;9579;49.488;8.226;2022-10-26T15:13:39;4.35;;;3.15;;
18893;SDS011;9579;49.488;8.226;2022-10-26T15:16:31;4.07;;;3.25;;
18893;SDS011;9579;49.488;8.226;2022-10-26T15:19:20;4.55;;;2.83;;
18893;SDS011;9579;49.488;8.226;2022-10-26T15:22:14;2.92;;;1.98;;
18893;SDS011;9579;49.488;8.226;2022-10-26T15:25:12;2.67;;;1.75;;
18893;SDS011;9579;49.488;8.226;2022-10-26T15:28:08;2.75;;;1.88;;
18893;SDS011;9579;49.488;8.226;2022-10-26T15:31:00;2.92;;;1.75;;
18893;SDS011;9579;49.488;8.226;2022-10-26T15:37:01;3.65;;;1.65;;
18893;SDS011;9579;49.488;8.226;2022-10-26T15:39:48;3.95;;;1.95;;
18893;SDS011;9579;49.488;8.226;2022-10-26T15:45:44;3.13;;;1.90;;
18893;SDS011;9579;49.488;8.226;2022-10-26T15:48:33;2.95;;;1.90;;
18893;SDS011;9579;49.488;8.226;2022-10-26T15:51:21;3.63;;;1.90;;
18893;SDS011;9579;49.488;8.226;2022-10-26T15:54:09;2.25;;;1.92;;
18893;SDS011;9579;49.488;8.226;2022-10-26T15:56:56;4.30;;;2.72;;
18893;SDS011;9579;49.488;8.226;2022-10-26T15:59:43;3.70;;;2.58;;
18893;SDS011;9579;49.488;8.226;2022-10-26T16:02:31;4.72;;;2.15;;
18893;SDS011;9579;49.488;8.226;2022-10-26T16:05:19;3.30;;;2.00;;
18893;SDS011;9579;49.488;8.226;2022-10-26T16:08:08;2.30;;;1.80;;
18893;SDS011;9579;49.488;8.226;2022-10-26T16:10:57;3.30;;;1.80;;
18893;SDS011;9579;49.488;8.226;2022-10-26T16:13:44;1.95;;;1.70;;
18893;SDS011;9579;49.488;8.226;2022-10-26T16:16:31;3.33;;;1.95;;
18893;SDS011;9579;49.488;8.226;2022-10-26T16:19:19;2.75;;;1.98;;
18893;SDS011;9579;49.488;8.226;2022-10-26T16:22:06;3.15;;;1.98;;
18893;SDS011;9579;49.488;8.226;2022-10-26T16:24:57;2.50;;;1.88;;
18893;SDS011;9579;49.488;8.226;2022-10-26T16:27:44;3.38;;;1.80;;
18893;SDS011;9579;49.488;8.226;2022-10-26T16:30:33;4.13;;;2.20;;
18893;SDS011;9579;49.488;8.226;2022-10-26T16:33:23;2.78;;;2.10;;
18893;SDS011;9579;49.488;8.226;2022-10-26T16:36:10;3.58;;;2.15;;
18893;SDS011;9579;49.488;8.226;2022-10-26T16:38:58;4.82;;;2.75;;
18893;SDS011;9579;49.488;8.226;2022-10-26T16:41:48;4.13;;;2.88;;
18893;SDS011;9579;49.488;8.226;2022-10-26T16:44:36;5.35;;;2.33;;
18893;SDS011;9579;49.488;8.226;2022-10-26T16:47:24;5.03;;;2.60;;
18893;SDS011;9579;49.488;8.226;2022-10-26T16:50:11;4.65;;;2.35;;
18893;SDS011;9579;49.488;8.226;2022-10-26T16:52:58;3.72;;;2.50;;
18893;SDS011;9579;49.488;8.226;2022-10-26T16:55:45;3.35;;;2.30;;
18893;SDS011;9579;49.488;8.226;2022-10-26T16:58:34;5.38;;;2.50;;
18893;SDS011;9579;49.488;8.226;2022-10-26T17:01:21;4.50;;;3.10;;
18893;SDS011;9579;49.488;8.226;2022-10-26T17:04:09;5.53;;;2.35;;
18893;SDS011;9579;49.488;8.226;2022-10-26T17:06:56;4.05;;;2.50;;
18893;SDS011;9579;49.488;8.226;2022-10-26T17:09:43;5.45;;;2.60;;
18893;SDS011;9579;49.488;8.226;2022-10-26T17:12:30;3.85;;;2.78;;
18893;SDS011;9579;49.488;8.226;2022-10-26T17:17:49;3.83;;;2.67;;
18893;SDS011;9579;49.488;8.226;2022-10-26T17:20:36;4.80;;;3.20;;
18893;SDS011;9579;49.488;8.226;2022-10-26T17:23:23;5.03;;;3.95;;
18893;SDS011;9579;49.488;8.226;2022-10-26T17:26:11;4.72;;;3.95;;
18893;SDS011;9579;49.488;8.226;2022-10-26T17:29:00;4.00;;;3.60;;
18893;SDS011;9579;49.488;8.226;2022-10-26T17:31:47;4.07;;;3.28;;
18893;SDS011;9579;49.488;8.226;2022-10-26T17:34:36;3.70;;;3.20;;
18893;SDS011;9579;49.488;8.226;2022-10-26T17:37:23;3.50;;;2.78;;
18893;SDS011;9579;49.488;8.226;2022-10-26T17:40:19;4.60;;;3.03;;
18893;SDS011;9579;49.488;8.226;2022-10-26T17:43:13;4.38;;;2.80;;
18893;SDS011;9579;49.488;8.226;2022-10-26T17:46:11;3.15;;;2.78;;
18893;SDS011;9579;49.488;8.226;2022-10-26T17:49:07;5.05;;;3.30;;
18893;SDS011;9579;49.488;8.226;2022-10-26T17:52:00;3.83;;;2.88;;
18893;SDS011;9579;49.488;8.226;2022-10-26T17:54:55;4.35;;;2.90;;
18893;SDS011;9579;49.488;8.226;2022-10-26T17:58:07;5.47;;;3.08;;
18893;SDS011;9579;49.488;8.226;2022-10-26T18:01:05;4.63;;;2.92;;
18893;SDS011;9579;49.488;8.226;2022-10-26T18:03:53;3.28;;;2.78;;
18893;SDS011;9579;49.488;8.226;2022-10-26T18:06:46;7.57;;;2.95;;
18893;SDS011;9579;49.488;8.226;2022-10-26T18:09:34;4.93;;;2.90;;
18893;SDS011;9579;49.488;8.226;2022-10-26T18:12:23;5.50;;;3.20;;
18893;SDS011;9579;49.488;8.226;2022-10-26T18:15:33;5.97;;;2.75;;
18893;SDS011;9579;49.488;8.226;2022-10-26T18:18:34;4.22;;;2.92;;
18893;SDS011;9579;49.488;8.226;2022-10-26T18:21:25;4.05;;;2.70;;
18893;SDS011;9579;49.488;8.226;2022-10-26T18:24:13;5.13;;;2.72;;
18893;SDS011;9579;49.488;8.226;2022-10-26T18:30:59;3.20;;;2.63;;
18893;SDS011;9579;49.488;8.226;2022-10-26T18:33:59;5.15;;;2.90;;
18893;SDS011;9579;49.488;8.226;2022-10-26T18:36:48;4.20;;;2.80;;
18893;SDS011;9579;49.488;8.226;2022-10-26T18:39:35;3.83;;;2.28;;
18893;SDS011;9579;49.488;8.226;2022-10-26T18:42:22;3.45;;;2.97;;
18893;SDS011;9579;49.488;8.226;2022-10-26T18:45:10;4.15;;;2.72;;
18893;SDS011;9579;49.488;8.226;2022-10-26T18:48:00;6.38;;;2.90;;
18893;SDS011;9579;49.488;8.226;2022-10-26T18:51:25;4.78;;;3.63;;
18893;SDS011;9579;49.488;8.226;2022-10-26T18:54:34;4.47;;;3.42;;
18893;SDS011;9579;49.488;8.226;2022-10-26T18:57:24;6.15;;;3.70;;
18893;SDS011;9579;49.488;8.226;2022-10-26T19:00:35;5.43;;;4.28;;
18893;SDS011;9579;49.488;8.226;2022-10-26T19:03:29;7.78;;;6.43;;
18893;SDS011;9579;49.488;8.226;2022-10-26T19:09:34;8.52;;;6.63;;
18893;SDS011;9579;49.488;8.226;2022-10-26T19:12:22;7.72;;;5.20;;
18893;SDS011;9579;49.488;8.226;2022-10-26T19:15:44;7.43;;;5.22;;
18893;SDS011;9579;49.488;8.226;2022-10-26T19:18:39;4.80;;;4.20;;
18893;SDS011;9579;49.488;8.226;2022-10-26T19:21:42;5.53;;;4.28;;
18893;SDS011;9579;49.488;8.226;2022-10-26T19:24:46;5.38;;;4.20;;
18893;SDS011;9579;49.488;8.226;2022-10-26T19:27:53;6.22;;;4.72;;
18893;SDS011;9579;49.488;8.226;2022-10-26T19:30:40;6.78;;;5.00;;
18893;SDS011;9579;49.488;8.226;2022-10-26T19:48:25;5.85;;;5.25;;
18893;SDS011;9579;49.488;8.226;2022-10-26T19:51:17;9.25;;;8.35;;
18893;SDS011;9579;49.488;8.226;2022-10-26T19:54:36;24.85;;;22.70;;
18893;SDS011;9579;49.488;8.226;2022-10-26T19:58:14;8.88;;;7.97;;
18893;SDS011;9579;49.488;8.226;2022-10-26T20:01:32;4.63;;;3.50;;
18893;SDS011;9579;49.488;8.226;2022-10-26T20:04:54;3.83;;;3.42;;
18893;SDS011;9579;49.488;8.226;2022-10-26T20:11:41;6.50;;;3.70;;
18893;SDS011;9579;49.488;8.226;2022-10-26T20:18:52;6.20;;;3.88;;
18893;SDS011;9579;49.488;8.226;2022-10-26T20:25:26;4.47;;;3.63;;
18893;SDS011;9579;49.488;8.226;2022-10-26T20:28:13;5.72;;;3.50;;
18893;SDS011;9579;49.488;8.226;2022-10-26T20:31:02;4.00;;;3.45;;
18893;SDS011;9579;49.488;8.226;2022-10-26T20:33:52;4.72;;;3.30;;
18893;SDS011;9579;49.488;8.226;2022-10-26T20:36:39;5.07;;;4.47;;
18893;SDS011;9579;49.488;8.226;2022-10-26T20:39:26;6.28;;;4.50;;
18893;SDS011;9579;49.488;8.226;2022-10-26T20:42:18;7.40;;;5.00;;
18893;SDS011;9579;49.488;8.226;2022-10-26T20:45:23;5.95;;;4.88;;
18893;SDS011;9579;49.488;8.226;2022-10-26T20:48:20;10.35;;;4.57;;
18893;SDS011;9579;49.488;8.226;2022-10-26T20:51:12;5.43;;;4.60;;
18893;SDS011;9579;49.488;8.226;2022-10-26T20:54:05;6.28;;;4.70;;
18893;SDS011;9579;49.488;8.226;2022-10-26T20:57:04;5.85;;;4.18;;
18893;SDS011;9579;49.488;8.226;2022-10-26T20:59:58;8.40;;;4.47;;
18893;SDS011;9579;49.488;8.226;2022-10-26T21:02:49;7.20;;;4.10;;
18893;SDS011;9579;49.488;8.226;2022-10-26T21:05:36;4.82;;;4.00;;
18893;SDS011;9579;49.488;8.226;2022-10-26T21:08:28;5.95;;;3.83;;
18893;SDS011;9579;49.488;8.226;2022-10-26T21:11:29;6.93;;;4.03;;
18893;SDS011;9579;49.488;8.226;2022-10-26T21:14:16;4.38;;;3.60;;
18893;SDS011;9579;49.488;8.226;2022-10-26T21:17:03;5.03;;;3.70;;
18893;SDS011;9579;49.488;8.226;2022-10-26T21:19:51;7.88;;;4.10;;
18893;SDS011;9579;49.488;8.226;2022-10-26T21:22:38;6.28;;;3.58;;
18893;SDS011;9579;49.488;8.226;2022-10-26T21:25:26;3.70;;;3.33;;
18893;SDS011;9579;49.488;8.226;2022-10-26T21:28:14;4.82;;;3.38;;
18893;SDS011;9579;49.488;8.226;2022-10-26T21:31:01;5.65;;;3.30;;
18893;SDS011;9579;49.488;8.226;2022-10-26T21:33:49;6.32;;;3.50;;
18893;SDS011;9579;49.488;8.226;2022-10-26T21:36:36;5.72;;;3.15;;
18893;SDS011;9579;49.488;8.226;2022-10-26T21:39:23;4.75;;;3.42;;
18893;SDS011;9579;49.488;8.226;2022-10-26T21:42:11;5.32;;;3.67;;
18893;SDS011;9579;49.488;8.226;2022-10-26T21:44:59;5.38;;;3.38;;
18893;SDS011;9579;49.488;8.226;2022-10-26T21:47:49;3.72;;;3.30;;
18893;SDS011;9579;49.488;8.226;2022-10-26T21:50:36;6.43;;;3.25;;
18893;SDS011;9579;49.488;8.226;2022-10-26T21:53:26;4.85;;;3.70;;
18893;SDS011;9579;49.488;8.226;2022-10-26T21:56:15;5.10;;;3.58;;
18893;SDS011;9579;49.488;8.226;2022-10-26T21:59:08;4.40;;;3.60;;
18893;SDS011;9579;49.488;8.226;2022-10-26T22:01:56;3.85;;;3.20;;
18893;SDS011;9579;49.488;8.226;2022-10-26T22:04:43;5.38;;;3.22;;
18893;SDS011;9579;49.488;8.226;2022-10-26T22:07:30;4.75;;;3.45;;
18893;SDS011;9579;49.488;8.226;2022-10-26T22:10:17;4.60;;;3.47;;
18893;SDS011;9579;49.488;8.226;2022-10-26T22:13:04;4.28;;;3.80;;
18893;SDS011;9579;49.488;8.226;2022-10-26T22:16:03;4.78;;;3.35;;
18893;SDS011;9579;49.488;8.226;2022-10-26T22:18:52;6.75;;;4.20;;
18893;SDS011;9579;49.488;8.226;2022-10-26T22:21:42;5.40;;;4.10;;
18893;SDS011;9579;49.488;8.226;2022-10-26T22:24:29;5.80;;;3.97;;
18893;SDS011;9579;49.488;8.226;2022-10-26T22:27:17;7.03;;;4.10;;
